sensor_id;sensor_type;location;lat;lon;timestamp;P1;durP1;ratioP1;P2;durP2;ratioP2
35330;SDS011;21441;52.190;20.910;2024-01-30T00:02:16;46.72;;;25.38;;
35330;SDS011;21441;52.190;20.910;2024-01-30T00:04:43;41.78;;;25.67;;
35330;SDS011;21441;52.190;20.910;2024-01-30T00:07:10;43.75;;;24.55;;
35330;SDS011;21441;52.190;20.910;2024-01-30T00:09:38;49.42;;;25.60;;
35330;SDS011;21441;52.190;20.910;2024-01-30T00:12:06;44.25;;;25.98;;
35330;SDS011;21441;52.190;20.910;2024-01-30T00:14:34;47.30;;;27.00;;
35330;SDS011;21441;52.190;20.910;2024-01-30T00:17:02;44.50;;;25.17;;
35330;SDS011;21441;52.190;20.910;2024-01-30T00:19:29;44.47;;;25.55;;
35330;SDS011;21441;52.190;20.910;2024-01-30T00:21:57;46.65;;;26.33;;
35330;SDS011;21441;52.190;20.910;2024-01-30T00:24:24;46.38;;;24.33;;
35330;SDS011;21441;52.190;20.910;2024-01-30T00:26:51;44.35;;;23.77;;
35330;SDS011;21441;52.190;20.910;2024-01-30T00:29:18;44.35;;;25.42;;
35330;SDS011;21441;52.190;20.910;2024-01-30T00:31:49;42.78;;;25.88;;
35330;SDS011;21441;52.190;20.910;2024-01-30T00:34:16;44.13;;;26.02;;
35330;SDS011;21441;52.190;20.910;2024-01-30T00:36:44;47.10;;;26.20;;
35330;SDS011;21441;52.190;20.910;2024-01-30T00:39:12;46.78;;;26.30;;
35330;SDS011;21441;52.190;20.910;2024-01-30T00:41:41;45.57;;;25.00;;
35330;SDS011;21441;52.190;20.910;2024-01-30T00:44:08;48.80;;;26.85;;
35330;SDS011;21441;52.190;20.910;2024-01-30T00:46:35;39.63;;;23.55;;
35330;SDS011;21441;52.190;20.910;2024-01-30T00:49:04;46.80;;;25.08;;
35330;SDS011;21441;52.190;20.910;2024-01-30T00:51:31;48.95;;;25.52;;
35330;SDS011;21441;52.190;20.910;2024-01-30T00:53:58;45.35;;;25.95;;
35330;SDS011;21441;52.190;20.910;2024-01-30T00:56:25;45.17;;;24.98;;
35330;SDS011;21441;52.190;20.910;2024-01-30T00:58:52;48.40;;;26.15;;
35330;SDS011;21441;52.190;20.910;2024-01-30T01:01:19;43.20;;;25.27;;
35330;SDS011;21441;52.190;20.910;2024-01-30T01:03:46;45.58;;;25.38;;
35330;SDS011;21441;52.190;20.910;2024-01-30T01:06:15;44.42;;;25.10;;
35330;SDS011;21441;52.190;20.910;2024-01-30T01:08:42;51.20;;;26.33;;
35330;SDS011;21441;52.190;20.910;2024-01-30T01:11:09;44.70;;;25.48;;
35330;SDS011;21441;52.190;20.910;2024-01-30T01:13:36;43.88;;;26.58;;
35330;SDS011;21441;52.190;20.910;2024-01-30T01:16:03;44.22;;;26.00;;
35330;SDS011;21441;52.190;20.910;2024-01-30T01:18:31;50.78;;;25.88;;
35330;SDS011;21441;52.190;20.910;2024-01-30T01:20:59;52.53;;;27.23;;
35330;SDS011;21441;52.190;20.910;2024-01-30T01:23:27;51.55;;;27.23;;
35330;SDS011;21441;52.190;20.910;2024-01-30T01:25:54;50.13;;;26.88;;
35330;SDS011;21441;52.190;20.910;2024-01-30T01:28:21;43.80;;;24.58;;
35330;SDS011;21441;52.190;20.910;2024-01-30T01:30:49;46.83;;;25.08;;
35330;SDS011;21441;52.190;20.910;2024-01-30T01:33:15;45.58;;;24.05;;
35330;SDS011;21441;52.190;20.910;2024-01-30T01:35:43;44.35;;;24.52;;
35330;SDS011;21441;52.190;20.910;2024-01-30T01:38:10;49.28;;;25.05;;
35330;SDS011;21441;52.190;20.910;2024-01-30T01:40:39;44.10;;;24.60;;
35330;SDS011;21441;52.190;20.910;2024-01-30T01:43:06;41.63;;;23.92;;
35330;SDS011;21441;52.190;20.910;2024-01-30T01:45:33;47.53;;;24.95;;
35330;SDS011;21441;52.190;20.910;2024-01-30T01:48:00;40.30;;;23.80;;
35330;SDS011;21441;52.190;20.910;2024-01-30T01:50:27;43.30;;;25.05;;
35330;SDS011;21441;52.190;20.910;2024-01-30T01:52:55;45.58;;;24.02;;
35330;SDS011;21441;52.190;20.910;2024-01-30T01:55:22;45.72;;;24.85;;
35330;SDS011;21441;52.190;20.910;2024-01-30T01:57:53;41.97;;;25.52;;
35330;SDS011;21441;52.190;20.910;2024-01-30T02:00:20;43.53;;;23.77;;
35330;SDS011;21441;52.190;20.910;2024-01-30T02:02:47;44.38;;;25.75;;
35330;SDS011;21441;52.190;20.910;2024-01-30T02:05:15;41.92;;;23.90;;
35330;SDS011;21441;52.190;20.910;2024-01-30T02:07:43;46.42;;;25.05;;
35330;SDS011;21441;52.190;20.910;2024-01-30T02:10:10;47.10;;;26.23;;
35330;SDS011;21441;52.190;20.910;2024-01-30T02:12:37;51.15;;;25.63;;
35330;SDS011;21441;52.190;20.910;2024-01-30T02:15:06;44.03;;;24.70;;
35330;SDS011;21441;52.190;20.910;2024-01-30T02:17:34;47.55;;;25.63;;
35330;SDS011;21441;52.190;20.910;2024-01-30T02:20:01;46.22;;;24.67;;
35330;SDS011;21441;52.190;20.910;2024-01-30T02:22:32;42.77;;;23.97;;
35330;SDS011;21441;52.190;20.910;2024-01-30T02:27:27;41.97;;;24.02;;
35330;SDS011;21441;52.190;20.910;2024-01-30T02:29:55;48.05;;;22.95;;
35330;SDS011;21441;52.190;20.910;2024-01-30T02:32:21;45.22;;;24.27;;
35330;SDS011;21441;52.190;20.910;2024-01-30T02:34:49;40.97;;;23.60;;
35330;SDS011;21441;52.190;20.910;2024-01-30T02:37:16;48.50;;;24.52;;
35330;SDS011;21441;52.190;20.910;2024-01-30T02:39:46;43.60;;;23.40;;
35330;SDS011;21441;52.190;20.910;2024-01-30T02:42:14;46.75;;;22.80;;
35330;SDS011;21441;52.190;20.910;2024-01-30T02:44:41;45.50;;;24.25;;
35330;SDS011;21441;52.190;20.910;2024-01-30T02:47:08;45.97;;;24.42;;
35330;SDS011;21441;52.190;20.910;2024-01-30T02:49:35;41.95;;;23.00;;
35330;SDS011;21441;52.190;20.910;2024-01-30T02:52:02;44.45;;;23.15;;
35330;SDS011;21441;52.190;20.910;2024-01-30T02:54:30;43.00;;;23.75;;
35330;SDS011;21441;52.190;20.910;2024-01-30T02:56:58;40.55;;;23.10;;
35330;SDS011;21441;52.190;20.910;2024-01-30T02:59:25;44.42;;;23.30;;
35330;SDS011;21441;52.190;20.910;2024-01-30T03:01:52;45.25;;;22.83;;
35330;SDS011;21441;52.190;20.910;2024-01-30T03:04:19;40.35;;;22.48;;
35330;SDS011;21441;52.190;20.910;2024-01-30T03:06:46;41.22;;;23.08;;
35330;SDS011;21441;52.190;20.910;2024-01-30T03:09:15;42.40;;;22.95;;
35330;SDS011;21441;52.190;20.910;2024-01-30T03:11:42;44.75;;;24.63;;
35330;SDS011;21441;52.190;20.910;2024-01-30T03:14:11;48.40;;;23.98;;
35330;SDS011;21441;52.190;20.910;2024-01-30T03:16:38;43.28;;;22.25;;
35330;SDS011;21441;52.190;20.910;2024-01-30T03:19:06;37.83;;;22.13;;
35330;SDS011;21441;52.190;20.910;2024-01-30T03:21:34;41.08;;;21.80;;
35330;SDS011;21441;52.190;20.910;2024-01-30T03:24:02;41.42;;;22.90;;
35330;SDS011;21441;52.190;20.910;2024-01-30T03:26:29;41.10;;;22.92;;
35330;SDS011;21441;52.190;20.910;2024-01-30T03:28:56;39.72;;;22.45;;
35330;SDS011;21441;52.190;20.910;2024-01-30T03:31:24;43.03;;;23.70;;
35330;SDS011;21441;52.190;20.910;2024-01-30T03:33:52;41.70;;;23.08;;
35330;SDS011;21441;52.190;20.910;2024-01-30T03:36:19;44.78;;;23.08;;
35330;SDS011;21441;52.190;20.910;2024-01-30T03:38:47;40.20;;;21.75;;
35330;SDS011;21441;52.190;20.910;2024-01-30T03:41:14;45.50;;;23.75;;
35330;SDS011;21441;52.190;20.910;2024-01-30T03:43:41;43.45;;;23.65;;
35330;SDS011;21441;52.190;20.910;2024-01-30T03:46:08;45.88;;;23.95;;
35330;SDS011;21441;52.190;20.910;2024-01-30T03:48:36;40.72;;;24.60;;
35330;SDS011;21441;52.190;20.910;2024-01-30T03:51:04;39.95;;;21.55;;
35330;SDS011;21441;52.190;20.910;2024-01-30T03:53:31;39.00;;;21.33;;
35330;SDS011;21441;52.190;20.910;2024-01-30T03:55:58;46.55;;;24.15;;
35330;SDS011;21441;52.190;20.910;2024-01-30T03:58:26;44.67;;;22.58;;
35330;SDS011;21441;52.190;20.910;2024-01-30T04:00:52;40.38;;;23.42;;
35330;SDS011;21441;52.190;20.910;2024-01-30T04:03:21;44.55;;;24.85;;
35330;SDS011;21441;52.190;20.910;2024-01-30T04:05:50;42.53;;;23.95;;
35330;SDS011;21441;52.190;20.910;2024-01-30T04:08:18;40.80;;;22.65;;
35330;SDS011;21441;52.190;20.910;2024-01-30T04:10:45;44.20;;;21.20;;
35330;SDS011;21441;52.190;20.910;2024-01-30T04:13:13;38.17;;;19.85;;
35330;SDS011;21441;52.190;20.910;2024-01-30T04:15:40;42.40;;;24.25;;
35330;SDS011;21441;52.190;20.910;2024-01-30T04:18:07;44.70;;;21.98;;
35330;SDS011;21441;52.190;20.910;2024-01-30T04:20:34;40.95;;;23.20;;
35330;SDS011;21441;52.190;20.910;2024-01-30T04:23:03;42.80;;;23.30;;
35330;SDS011;21441;52.190;20.910;2024-01-30T04:25:30;41.90;;;22.90;;
35330;SDS011;21441;52.190;20.910;2024-01-30T04:27:57;41.60;;;23.38;;
35330;SDS011;21441;52.190;20.910;2024-01-30T04:30:24;41.58;;;22.30;;
35330;SDS011;21441;52.190;20.910;2024-01-30T04:32:51;43.05;;;24.20;;
35330;SDS011;21441;52.190;20.910;2024-01-30T04:35:18;43.15;;;22.73;;
35330;SDS011;21441;52.190;20.910;2024-01-30T04:37:49;43.47;;;22.92;;
35330;SDS011;21441;52.190;20.910;2024-01-30T04:40:17;39.83;;;22.15;;
35330;SDS011;21441;52.190;20.910;2024-01-30T04:42:44;41.47;;;24.00;;
35330;SDS011;21441;52.190;20.910;2024-01-30T04:45:11;48.63;;;24.33;;
35330;SDS011;21441;52.190;20.910;2024-01-30T04:47:39;43.15;;;22.88;;
35330;SDS011;21441;52.190;20.910;2024-01-30T04:50:06;40.63;;;22.33;;
35330;SDS011;21441;52.190;20.910;2024-01-30T04:52:34;39.15;;;21.70;;
35330;SDS011;21441;52.190;20.910;2024-01-30T04:55:01;46.58;;;22.17;;
35330;SDS011;21441;52.190;20.910;2024-01-30T04:57:30;38.53;;;21.75;;
35330;SDS011;21441;52.190;20.910;2024-01-30T05:02:26;40.55;;;21.40;;
35330;SDS011;21441;52.190;20.910;2024-01-30T05:04:53;41.10;;;21.98;;
35330;SDS011;21441;52.190;20.910;2024-01-30T05:07:21;48.08;;;24.55;;
35330;SDS011;21441;52.190;20.910;2024-01-30T05:09:48;42.75;;;23.90;;
35330;SDS011;21441;52.190;20.910;2024-01-30T05:12:15;42.35;;;22.98;;
35330;SDS011;21441;52.190;20.910;2024-01-30T05:14:43;44.83;;;24.63;;
35330;SDS011;21441;52.190;20.910;2024-01-30T05:17:10;44.95;;;22.55;;
35330;SDS011;21441;52.190;20.910;2024-01-30T05:19:38;44.20;;;23.55;;
35330;SDS011;21441;52.190;20.910;2024-01-30T05:22:05;44.30;;;21.88;;
35330;SDS011;21441;52.190;20.910;2024-01-30T05:24:32;38.85;;;22.70;;
35330;SDS011;21441;52.190;20.910;2024-01-30T05:27:00;37.08;;;22.33;;
35330;SDS011;21441;52.190;20.910;2024-01-30T05:29:27;44.80;;;23.75;;
35330;SDS011;21441;52.190;20.910;2024-01-30T05:31:55;38.50;;;21.92;;
35330;SDS011;21441;52.190;20.910;2024-01-30T05:34:22;44.47;;;21.65;;
35330;SDS011;21441;52.190;20.910;2024-01-30T05:36:50;39.88;;;23.50;;
35330;SDS011;21441;52.190;20.910;2024-01-30T05:39:17;41.00;;;22.15;;
35330;SDS011;21441;52.190;20.910;2024-01-30T05:41:44;36.90;;;21.40;;
35330;SDS011;21441;52.190;20.910;2024-01-30T05:44:11;41.97;;;22.90;;
35330;SDS011;21441;52.190;20.910;2024-01-30T05:46:48;47.35;;;23.85;;
35330;SDS011;21441;52.190;20.910;2024-01-30T05:49:25;40.08;;;24.00;;
35330;SDS011;21441;52.190;20.910;2024-01-30T05:51:52;43.05;;;23.50;;
35330;SDS011;21441;52.190;20.910;2024-01-30T05:54:19;40.92;;;23.10;;
35330;SDS011;21441;52.190;20.910;2024-01-30T05:56:46;39.15;;;21.60;;
35330;SDS011;21441;52.190;20.910;2024-01-30T05:59:13;40.90;;;22.73;;
35330;SDS011;21441;52.190;20.910;2024-01-30T06:01:45;37.50;;;21.90;;
35330;SDS011;21441;52.190;20.910;2024-01-30T06:04:14;43.05;;;22.90;;
35330;SDS011;21441;52.190;20.910;2024-01-30T06:06:41;44.80;;;22.27;;
35330;SDS011;21441;52.190;20.910;2024-01-30T06:09:08;36.83;;;22.25;;
35330;SDS011;21441;52.190;20.910;2024-01-30T06:11:35;37.03;;;22.25;;
35330;SDS011;21441;52.190;20.910;2024-01-30T06:14:02;39.83;;;22.67;;
35330;SDS011;21441;52.190;20.910;2024-01-30T06:16:30;44.15;;;23.25;;
35330;SDS011;21441;52.190;20.910;2024-01-30T06:18:57;43.05;;;23.13;;
35330;SDS011;21441;52.190;20.910;2024-01-30T06:21:26;40.28;;;22.85;;
35330;SDS011;21441;52.190;20.910;2024-01-30T06:23:53;40.25;;;22.00;;
35330;SDS011;21441;52.190;20.910;2024-01-30T06:26:20;41.53;;;22.27;;
35330;SDS011;21441;52.190;20.910;2024-01-30T06:28:47;41.03;;;22.50;;
35330;SDS011;21441;52.190;20.910;2024-01-30T06:31:14;42.40;;;23.80;;
35330;SDS011;21441;52.190;20.910;2024-01-30T06:33:41;39.53;;;23.58;;
35330;SDS011;21441;52.190;20.910;2024-01-30T06:36:08;41.97;;;22.90;;
35330;SDS011;21441;52.190;20.910;2024-01-30T06:38:37;41.50;;;23.65;;
35330;SDS011;21441;52.190;20.910;2024-01-30T06:41:04;44.75;;;24.15;;
35330;SDS011;21441;52.190;20.910;2024-01-30T06:43:31;42.20;;;24.20;;
35330;SDS011;21441;52.190;20.910;2024-01-30T06:45:59;43.05;;;24.73;;
35330;SDS011;21441;52.190;20.910;2024-01-30T06:48:26;44.63;;;24.45;;
35330;SDS011;21441;52.190;20.910;2024-01-30T06:50:53;43.78;;;23.08;;
35330;SDS011;21441;52.190;20.910;2024-01-30T06:53:20;42.20;;;24.63;;
35330;SDS011;21441;52.190;20.910;2024-01-30T06:55:49;41.70;;;23.83;;
35330;SDS011;21441;52.190;20.910;2024-01-30T06:58:16;47.92;;;24.10;;
35330;SDS011;21441;52.190;20.910;2024-01-30T07:00:43;45.10;;;24.33;;
35330;SDS011;21441;52.190;20.910;2024-01-30T07:03:10;52.63;;;26.23;;
35330;SDS011;21441;52.190;20.910;2024-01-30T07:05:37;50.90;;;25.92;;
35330;SDS011;21441;52.190;20.910;2024-01-30T07:08:04;49.97;;;27.35;;
35330;SDS011;21441;52.190;20.910;2024-01-30T07:10:33;56.30;;;27.10;;
35330;SDS011;21441;52.190;20.910;2024-01-30T07:13:01;56.63;;;27.23;;
35330;SDS011;21441;52.190;20.910;2024-01-30T07:17:56;53.33;;;24.48;;
35330;SDS011;21441;52.190;20.910;2024-01-30T07:20:24;49.95;;;25.80;;
35330;SDS011;21441;52.190;20.910;2024-01-30T07:22:51;51.15;;;25.20;;
35330;SDS011;21441;52.190;20.910;2024-01-30T07:25:19;45.80;;;23.23;;
35330;SDS011;21441;52.190;20.910;2024-01-30T07:27:47;46.33;;;21.42;;
35330;SDS011;21441;52.190;20.910;2024-01-30T07:30:15;39.58;;;21.25;;
35330;SDS011;21441;52.190;20.910;2024-01-30T07:32:44;30.38;;;20.25;;
35330;SDS011;21441;52.190;20.910;2024-01-30T07:35:11;35.92;;;20.98;;
35330;SDS011;21441;52.190;20.910;2024-01-30T07:37:40;32.30;;;18.93;;
35330;SDS011;21441;52.190;20.910;2024-01-30T07:40:13;34.00;;;18.67;;
35330;SDS011;21441;52.190;20.910;2024-01-30T07:42:40;31.92;;;19.75;;
35330;SDS011;21441;52.190;20.910;2024-01-30T07:45:08;34.95;;;19.45;;
35330;SDS011;21441;52.190;20.910;2024-01-30T07:47:37;30.17;;;18.60;;
35330;SDS011;21441;52.190;20.910;2024-01-30T07:50:05;32.63;;;18.10;;
35330;SDS011;21441;52.190;20.910;2024-01-30T07:52:33;33.78;;;18.98;;
35330;SDS011;21441;52.190;20.910;2024-01-30T07:55:00;28.27;;;17.95;;
35330;SDS011;21441;52.190;20.910;2024-01-30T07:57:29;29.23;;;17.80;;
35330;SDS011;21441;52.190;20.910;2024-01-30T07:59:56;27.33;;;18.55;;
35330;SDS011;21441;52.190;20.910;2024-01-30T08:02:23;29.17;;;18.35;;
35330;SDS011;21441;52.190;20.910;2024-01-30T08:04:54;31.15;;;18.40;;
35330;SDS011;21441;52.190;20.910;2024-01-30T08:07:21;30.52;;;18.85;;
35330;SDS011;21441;52.190;20.910;2024-01-30T08:09:48;30.83;;;18.05;;
35330;SDS011;21441;52.190;20.910;2024-01-30T08:12:15;35.20;;;19.90;;
35330;SDS011;21441;52.190;20.910;2024-01-30T08:14:43;29.50;;;18.42;;
35330;SDS011;21441;52.190;20.910;2024-01-30T08:17:10;28.05;;;16.88;;
35330;SDS011;21441;52.190;20.910;2024-01-30T08:19:37;26.65;;;15.13;;
35330;SDS011;21441;52.190;20.910;2024-01-30T08:22:05;28.73;;;15.48;;
35330;SDS011;21441;52.190;20.910;2024-01-30T08:24:32;28.38;;;16.25;;
35330;SDS011;21441;52.190;20.910;2024-01-30T08:26:59;25.95;;;15.00;;
35330;SDS011;21441;52.190;20.910;2024-01-30T08:29:29;28.13;;;14.25;;
35330;SDS011;21441;52.190;20.910;2024-01-30T08:31:56;25.42;;;15.02;;
35330;SDS011;21441;52.190;20.910;2024-01-30T08:34:24;26.10;;;14.52;;
35330;SDS011;21441;52.190;20.910;2024-01-30T08:36:51;27.52;;;14.70;;
35330;SDS011;21441;52.190;20.910;2024-01-30T08:39:20;26.70;;;14.63;;
35330;SDS011;21441;52.190;20.910;2024-01-30T08:41:46;23.17;;;13.65;;
35330;SDS011;21441;52.190;20.910;2024-01-30T08:44:14;24.95;;;13.88;;
35330;SDS011;21441;52.190;20.910;2024-01-30T08:46:41;24.23;;;15.02;;
35330;SDS011;21441;52.190;20.910;2024-01-30T08:49:08;25.65;;;13.52;;
35330;SDS011;21441;52.190;20.910;2024-01-30T08:51:34;22.13;;;11.50;;
35330;SDS011;21441;52.190;20.910;2024-01-30T08:54:02;27.33;;;13.35;;
35330;SDS011;21441;52.190;20.910;2024-01-30T08:56:30;22.20;;;11.25;;
35330;SDS011;21441;52.190;20.910;2024-01-30T08:58:57;21.88;;;12.15;;
35330;SDS011;21441;52.190;20.910;2024-01-30T09:01:24;18.50;;;11.50;;
35330;SDS011;21441;52.190;20.910;2024-01-30T09:03:52;19.75;;;10.80;;
35330;SDS011;21441;52.190;20.910;2024-01-30T09:06:19;19.48;;;11.82;;
35330;SDS011;21441;52.190;20.910;2024-01-30T09:08:46;18.75;;;10.48;;
35330;SDS011;21441;52.190;20.910;2024-01-30T09:11:14;19.75;;;11.52;;
35330;SDS011;21441;52.190;20.910;2024-01-30T09:13:43;24.80;;;13.60;;
35330;SDS011;21441;52.190;20.910;2024-01-30T09:16:10;20.15;;;10.57;;
35330;SDS011;21441;52.190;20.910;2024-01-30T09:18:37;16.98;;;10.65;;
35330;SDS011;21441;52.190;20.910;2024-01-30T09:21:04;21.15;;;12.18;;
35330;SDS011;21441;52.190;20.910;2024-01-30T09:23:31;18.65;;;11.40;;
35330;SDS011;21441;52.190;20.910;2024-01-30T09:25:59;22.15;;;11.98;;
35330;SDS011;21441;52.190;20.910;2024-01-30T09:28:26;18.52;;;10.70;;
35330;SDS011;21441;52.190;20.910;2024-01-30T09:30:54;24.75;;;14.00;;
35330;SDS011;21441;52.190;20.910;2024-01-30T09:33:22;24.77;;;14.95;;
35330;SDS011;21441;52.190;20.910;2024-01-30T09:35:49;20.70;;;11.15;;
35330;SDS011;21441;52.190;20.910;2024-01-30T09:38:16;19.58;;;11.57;;
35330;SDS011;21441;52.190;20.910;2024-01-30T09:40:44;18.30;;;10.48;;
35330;SDS011;21441;52.190;20.910;2024-01-30T09:43:16;18.85;;;11.15;;
35330;SDS011;21441;52.190;20.910;2024-01-30T09:45:49;19.02;;;11.85;;
35330;SDS011;21441;52.190;20.910;2024-01-30T09:48:19;18.38;;;11.73;;
35330;SDS011;21441;52.190;20.910;2024-01-30T09:50:49;16.88;;;10.88;;
35330;SDS011;21441;52.190;20.910;2024-01-30T09:53:18;17.52;;;11.32;;
35330;SDS011;21441;52.190;20.910;2024-01-30T09:55:45;19.85;;;11.70;;
35330;SDS011;21441;52.190;20.910;2024-01-30T09:58:13;15.50;;;10.77;;
35330;SDS011;21441;52.190;20.910;2024-01-30T10:00:41;17.98;;;11.15;;
35330;SDS011;21441;52.190;20.910;2024-01-30T10:03:08;15.45;;;11.18;;
35330;SDS011;21441;52.190;20.910;2024-01-30T10:05:38;18.13;;;10.95;;
35330;SDS011;21441;52.190;20.910;2024-01-30T10:10:34;18.80;;;11.18;;
35330;SDS011;21441;52.190;20.910;2024-01-30T10:13:01;16.67;;;11.07;;
35330;SDS011;21441;52.190;20.910;2024-01-30T10:15:28;19.08;;;12.25;;
35330;SDS011;21441;52.190;20.910;2024-01-30T10:18:01;18.10;;;11.60;;
35330;SDS011;21441;52.190;20.910;2024-01-30T10:20:29;15.77;;;10.38;;
35330;SDS011;21441;52.190;20.910;2024-01-30T10:22:57;16.83;;;11.75;;
35330;SDS011;21441;52.190;20.910;2024-01-30T10:25:25;17.73;;;10.57;;
35330;SDS011;21441;52.190;20.910;2024-01-30T10:27:55;16.65;;;11.18;;
35330;SDS011;21441;52.190;20.910;2024-01-30T10:30:23;17.45;;;10.20;;
35330;SDS011;21441;52.190;20.910;2024-01-30T10:32:50;16.95;;;10.65;;
35330;SDS011;21441;52.190;20.910;2024-01-30T10:35:18;18.38;;;11.07;;
35330;SDS011;21441;52.190;20.910;2024-01-30T10:37:44;17.27;;;11.02;;
35330;SDS011;21441;52.190;20.910;2024-01-30T10:40:17;15.45;;;10.15;;
35330;SDS011;21441;52.190;20.910;2024-01-30T10:42:51;16.15;;;10.63;;
35330;SDS011;21441;52.190;20.910;2024-01-30T10:45:22;18.10;;;10.73;;
35330;SDS011;21441;52.190;20.910;2024-01-30T10:47:54;15.75;;;10.25;;
35330;SDS011;21441;52.190;20.910;2024-01-30T10:52:51;18.25;;;10.50;;
35330;SDS011;21441;52.190;20.910;2024-01-30T10:55:20;14.77;;;9.43;;
35330;SDS011;21441;52.190;20.910;2024-01-30T10:57:48;18.67;;;10.68;;
35330;SDS011;21441;52.190;20.910;2024-01-30T11:00:16;17.23;;;10.63;;
35330;SDS011;21441;52.190;20.910;2024-01-30T11:02:48;16.58;;;10.20;;
35330;SDS011;21441;52.190;20.910;2024-01-30T11:05:22;14.23;;;9.32;;
35330;SDS011;21441;52.190;20.910;2024-01-30T11:07:55;15.10;;;11.35;;
35330;SDS011;21441;52.190;20.910;2024-01-30T11:10:26;16.85;;;10.93;;
35330;SDS011;21441;52.190;20.910;2024-01-30T11:12:52;17.05;;;11.32;;
35330;SDS011;21441;52.190;20.910;2024-01-30T11:15:20;15.25;;;11.30;;
35330;SDS011;21441;52.190;20.910;2024-01-30T11:17:50;19.80;;;10.95;;
35330;SDS011;21441;52.190;20.910;2024-01-30T11:20:19;16.48;;;10.88;;
35330;SDS011;21441;52.190;20.910;2024-01-30T11:22:48;15.32;;;11.13;;
35330;SDS011;21441;52.190;20.910;2024-01-30T11:25:19;18.38;;;10.52;;
35330;SDS011;21441;52.190;20.910;2024-01-30T11:27:49;15.43;;;10.75;;
35330;SDS011;21441;52.190;20.910;2024-01-30T11:30:21;15.70;;;11.70;;
35330;SDS011;21441;52.190;20.910;2024-01-30T11:32:57;21.00;;;12.07;;
35330;SDS011;21441;52.190;20.910;2024-01-30T11:35:30;18.77;;;11.68;;
35330;SDS011;21441;52.190;20.910;2024-01-30T11:37:58;19.65;;;11.25;;
35330;SDS011;21441;52.190;20.910;2024-01-30T11:40:28;17.40;;;11.25;;
35330;SDS011;21441;52.190;20.910;2024-01-30T11:42:59;15.77;;;11.13;;
35330;SDS011;21441;52.190;20.910;2024-01-30T11:45:30;18.10;;;11.85;;
35330;SDS011;21441;52.190;20.910;2024-01-30T11:47:58;17.05;;;11.68;;
35330;SDS011;21441;52.190;20.910;2024-01-30T11:50:27;16.60;;;11.77;;
35330;SDS011;21441;52.190;20.910;2024-01-30T11:52:54;21.30;;;12.00;;
35330;SDS011;21441;52.190;20.910;2024-01-30T11:55:23;20.20;;;13.32;;
35330;SDS011;21441;52.190;20.910;2024-01-30T11:57:50;16.40;;;12.40;;
35330;SDS011;21441;52.190;20.910;2024-01-30T12:00:19;20.67;;;13.43;;
35330;SDS011;21441;52.190;20.910;2024-01-30T12:02:48;19.60;;;12.48;;
35330;SDS011;21441;52.190;20.910;2024-01-30T12:05:18;16.73;;;12.25;;
35330;SDS011;21441;52.190;20.910;2024-01-30T12:07:47;19.00;;;12.40;;
35330;SDS011;21441;52.190;20.910;2024-01-30T12:10:15;19.58;;;11.88;;
35330;SDS011;21441;52.190;20.910;2024-01-30T12:12:47;18.75;;;12.95;;
35330;SDS011;21441;52.190;20.910;2024-01-30T12:15:16;17.95;;;11.00;;
35330;SDS011;21441;52.190;20.910;2024-01-30T12:17:51;15.35;;;11.38;;
35330;SDS011;21441;52.190;20.910;2024-01-30T12:20:18;16.13;;;11.70;;
35330;SDS011;21441;52.190;20.910;2024-01-30T12:22:47;17.25;;;11.68;;
35330;SDS011;21441;52.190;20.910;2024-01-30T12:25:16;18.42;;;12.63;;
35330;SDS011;21441;52.190;20.910;2024-01-30T12:27:44;17.15;;;11.63;;
35330;SDS011;21441;52.190;20.910;2024-01-30T12:30:15;16.55;;;11.70;;
35330;SDS011;21441;52.190;20.910;2024-01-30T12:32:45;17.42;;;11.75;;
35330;SDS011;21441;52.190;20.910;2024-01-30T12:35:15;17.48;;;12.13;;
35330;SDS011;21441;52.190;20.910;2024-01-30T12:37:43;16.67;;;11.90;;
35330;SDS011;21441;52.190;20.910;2024-01-30T12:40:11;14.98;;;10.90;;
35330;SDS011;21441;52.190;20.910;2024-01-30T12:42:40;17.73;;;11.90;;
35330;SDS011;21441;52.190;20.910;2024-01-30T12:45:08;21.13;;;12.63;;
35330;SDS011;21441;52.190;20.910;2024-01-30T12:47:35;19.30;;;11.15;;
35330;SDS011;21441;52.190;20.910;2024-01-30T12:50:04;18.20;;;12.02;;
35330;SDS011;21441;52.190;20.910;2024-01-30T12:52:31;17.10;;;10.88;;
35330;SDS011;21441;52.190;20.910;2024-01-30T12:54:58;15.90;;;11.27;;
35330;SDS011;21441;52.190;20.910;2024-01-30T12:57:25;17.70;;;12.23;;
35330;SDS011;21441;52.190;20.910;2024-01-30T12:59:53;17.15;;;12.48;;
35330;SDS011;21441;52.190;20.910;2024-01-30T13:02:19;16.67;;;10.90;;
35330;SDS011;21441;52.190;20.910;2024-01-30T13:04:48;19.15;;;11.85;;
35330;SDS011;21441;52.190;20.910;2024-01-30T13:07:16;21.20;;;12.20;;
35330;SDS011;21441;52.190;20.910;2024-01-30T13:09:43;20.55;;;11.35;;
35330;SDS011;21441;52.190;20.910;2024-01-30T13:12:10;15.52;;;10.98;;
35330;SDS011;21441;52.190;20.910;2024-01-30T13:14:37;17.17;;;11.95;;
35330;SDS011;21441;52.190;20.910;2024-01-30T13:17:04;17.42;;;11.70;;
35330;SDS011;21441;52.190;20.910;2024-01-30T13:19:31;23.38;;;12.23;;
35330;SDS011;21441;52.190;20.910;2024-01-30T13:21:58;17.80;;;11.48;;
35330;SDS011;21441;52.190;20.910;2024-01-30T13:24:26;19.13;;;11.23;;
35330;SDS011;21441;52.190;20.910;2024-01-30T13:26:54;17.08;;;12.13;;
35330;SDS011;21441;52.190;20.910;2024-01-30T13:29:21;18.67;;;11.63;;
35330;SDS011;21441;52.190;20.910;2024-01-30T13:31:48;18.77;;;10.85;;
35330;SDS011;21441;52.190;20.910;2024-01-30T13:34:15;16.35;;;11.32;;
35330;SDS011;21441;52.190;20.910;2024-01-30T13:36:42;17.73;;;11.32;;
35330;SDS011;21441;52.190;20.910;2024-01-30T13:39:10;18.67;;;10.85;;
35330;SDS011;21441;52.190;20.910;2024-01-30T13:41:39;17.25;;;11.35;;
35330;SDS011;21441;52.190;20.910;2024-01-30T13:46:34;22.40;;;11.30;;
35330;SDS011;21441;52.190;20.910;2024-01-30T13:49:02;18.92;;;12.02;;
35330;SDS011;21441;52.190;20.910;2024-01-30T13:51:29;16.85;;;10.60;;
35330;SDS011;21441;52.190;20.910;2024-01-30T13:53:56;15.32;;;10.75;;
35330;SDS011;21441;52.190;20.910;2024-01-30T13:56:23;18.05;;;10.73;;
35330;SDS011;21441;52.190;20.910;2024-01-30T13:58:51;16.67;;;11.63;;
35330;SDS011;21441;52.190;20.910;2024-01-30T14:01:18;18.52;;;12.40;;
35330;SDS011;21441;52.190;20.910;2024-01-30T14:03:45;18.52;;;11.30;;
35330;SDS011;21441;52.190;20.910;2024-01-30T14:06:12;18.52;;;11.43;;
35330;SDS011;21441;52.190;20.910;2024-01-30T14:08:40;18.38;;;10.85;;
35330;SDS011;21441;52.190;20.910;2024-01-30T14:11:07;16.27;;;11.57;;
35330;SDS011;21441;52.190;20.910;2024-01-30T14:13:35;19.88;;;11.20;;
35330;SDS011;21441;52.190;20.910;2024-01-30T14:16:08;20.92;;;11.38;;
35330;SDS011;21441;52.190;20.910;2024-01-30T14:18:52;20.55;;;11.70;;
35330;SDS011;21441;52.190;20.910;2024-01-30T14:24:10;19.80;;;11.70;;
35330;SDS011;21441;52.190;20.910;2024-01-30T14:26:44;22.42;;;11.18;;
35330;SDS011;21441;52.190;20.910;2024-01-30T14:29:12;22.85;;;11.82;;
35330;SDS011;21441;52.190;20.910;2024-01-30T14:31:40;20.15;;;12.07;;